Latest Weather Observations for Rottnest Island

IDW60801

Issued at 7:02 am WST Sunday 1 March 2015 (issued every 30 minutes, with the page automatically refreshed every 10 minutes)

About weather observations | Map of weather stations | Latest weather observations for WA | Other Formats
Station Details ID: 009193 Name: ROTTNEST ISLAND Lat: -32.01 Lon: 115.50 Height: 43.1 m
Data from the previous 72 hours. | See also: Recent months at Rottnest Island
Date/Time
WST
Temp
°C
App
Temp
°C
Dew
Point
Rel
Hum
%
Delta-T
°C
Wind Press
QNH
hPa
Press
MSL
hPa
Rain
since 9 am
mm
Dir
 
Spd
km/h
Gust
km/h
Spd
kts
Gust
kts
01/07:00am 18.8 14.2 12.3 66 3.6 SE 28 37 15 20 1011.3 1011.1 0.0
01/06:30am 18.1 15.0 12.3 69 3.2 ESE 20 32 11 17 1011.0 1010.8 0.0
01/06:00am 18.1 14.6 12.3 69 3.2 ESE 22 32 12 17 1010.7 1010.5 0.0
01/05:30am 18.3 13.7 12.3 68 3.3 ESE 28 37 15 20 1010.5 1010.3 0.0
01/05:00am 18.3 15.2 12.3 68 3.3 ESE 20 32 11 17 1010.6 1010.4 0.0
01/04:30am 18.5 14.3 12.3 67 3.4 ESE 26 37 14 20 1010.6 1010.4 0.0
01/04:00am 18.7 14.8 12.2 66 3.6 ESE 24 32 13 17 1010.7 1010.5 0.0
01/03:30am 19.1 15.5 11.9 63 4.0 ESE 22 30 12 16 1010.8 1010.6 0.0
01/03:00am 19.5 15.0 11.5 60 4.4 E 26 39 14 21 1010.9 1010.7 0.0
01/02:30am 19.8 16.0 12.3 62 4.2 E 24 35 13 19 1011.0 1010.8 0.0
01/02:00am 20.3 15.9 11.8 58 4.7 E 26 35 14 19 1010.9 1010.7 0.0
01/01:30am 20.7 15.5 11.6 56 5.1 E 30 43 16 23 1011.1 1010.9 0.0
01/01:00am 21.4 17.9 12.3 56 5.1 E 22 32 12 17 1011.1 1010.9 0.0
01/12:30am 22.1 17.6 12.6 55 5.4 E 28 39 15 21 1011.2 1011.0 0.0
01/12:00am 22.0 18.7 12.8 56 5.3 ESE 22 33 12 18 1011.3 1011.1 0.0
 
Date/Time
WST
Temp
°C
App
Temp
°C
Dew
Point
Rel
Hum
%
Delta-T
°C
Wind Press
QNH
hPa
Press
MSL
hPa
Rain
since 9 am
mm
Dir
 
Spd
km/h
Gust
km/h
Spd
kts
Gust
kts
28/11:30pm 21.2 18.7 17.2 78 2.5 SE 26 35 14 19 1011.5 1011.3 0.0
28/11:00pm 21.7 19.1 18.7 83 1.9 S 30 35 16 19 1011.6 1011.4 0.0
28/10:30pm 21.5 18.0 17.9 80 2.2 S 33 39 18 21 1011.7 1011.5 0.0
28/10:00pm 21.6 17.7 17.8 79 2.4 S 35 43 19 23 1012.0 1011.8 0.0
28/09:30pm 21.6 17.5 17.4 77 2.6 S 35 44 19 24 1012.2 1012.0 0.0
28/09:00pm 21.7 17.5 17.1 75 2.8 S 35 46 19 25 1012.4 1012.2 0.0
28/08:30pm 21.5 17.0 16.5 73 3.0 S 35 44 19 24 1012.4 1012.2 0.0
28/08:00pm 21.3 16.0 16.3 73 3.0 S 39 46 21 25 1012.2 1012.0 0.0
28/07:30pm 21.0 15.5 15.8 72 3.1 SSW 39 50 21 27 1012.1 1011.9 0.0
28/07:00pm 21.1 15.7 15.9 72 3.1 SSW 39 50 21 27 1012.1 1011.9 0.0
28/06:30pm 21.1 15.1 15.4 70 3.4 SSW 41 48 22 26 1012.0 1011.8 0.0
28/06:00pm 21.5 15.8 15.3 68 3.7 SSW 39 50 21 27 1012.2 1012.0 0.0
28/05:30pm 22.0 16.2 14.9 64 4.2 SSW 39 52 21 28 1012.0 1011.8 0.0
28/05:00pm 22.9 17.4 15.7 64 4.3 SSW 39 50 21 27 1012.3 1012.1 0.0
28/04:30pm 22.6 16.4 15.0 62 4.5 SSW 41 50 22 27 1012.4 1012.2 0.0
28/04:00pm 23.7 18.0 15.2 59 5.1 SSW 39 50 21 27 1012.9 1012.7 0.0
28/03:30pm 23.0 16.6 14.3 58 5.1 SSW 41 48 22 26 1013.0 1012.8 0.0
28/03:00pm 23.1 17.1 14.4 58 5.1 SSW 39 44 21 24 1013.5 1013.3 0.0
28/02:30pm 23.2 17.6 14.5 58 5.1 SSW 37 46 20 25 1013.9 1013.7 0.0
28/02:00pm 23.8 18.8 15.0 57 5.3 SSW 35 43 19 23 1014.3 1014.1 0.0
28/01:30pm 23.6 19.1 13.8 54 5.7 SSW 30 35 16 19 1014.9 1014.7 0.0
28/01:00pm 24.0 19.9 13.8 53 6.0 S 28 32 15 17 1015.2 1015.0 0.0
28/12:30pm 23.8 20.4 13.6 52 6.0 S 24 30 13 16 1015.5 1015.3 0.0
28/12:00pm 24.4 21.7 13.6 51 6.3 S 20 26 11 14 1015.7 1015.5 0.0
28/11:30am 23.7 20.5 13.0 51 6.2 SSE 22 28 12 15 1016.0 1015.8 0.0
28/11:00am 23.5 20.3 13.1 52 6.0 SSE 22 28 12 15 1016.4 1016.2 0.0
28/10:30am 22.4 19.3 13.5 57 5.2 SSE 22 30 12 16 1016.5 1016.3 0.0
28/10:00am 22.2 19.1 13.3 57 5.1 SE 22 28 12 15 1016.8 1016.6 0.0
28/09:30am 21.1 17.2 13.3 61 4.5 SE 26 33 14 18 1016.8 1016.6 0.0
28/09:00am 20.4 16.3 12.6 61 4.4 SE 26 33 14 18 1016.6 1016.4 0.0
28/08:30am 20.3 15.5 13.0 63 4.2 SE 30 39 16 21 1016.7 1016.5 0.0
28/08:00am 20.2 16.9 12.7 62 4.2 SE 22 39 12 21 1016.8 1016.6 0.0
28/07:30am 19.7 16.4 12.9 65 3.8 ESE 22 32 12 17 1016.4 1016.2 0.0
28/07:00am 19.0 15.4 13.2 69 3.3 SE 24 35 13 19 1016.1 1015.9 0.0
28/06:30am 18.6 14.7 13.2 71 3.1 SE 26 37 14 20 1015.5 1015.3 0.0
28/06:00am 18.6 13.7 13.7 73 2.8 SE 32 37 17 20 1015.0 1014.8 0.0
28/05:30am 18.8 13.9 13.6 72 3.0 SE 32 41 17 22 1014.7 1014.5 0.0
28/05:00am 19.0 13.9 13.6 71 3.1 SE 33 43 18 23 1014.4 1014.2 0.0
28/04:30am 19.2 14.1 13.8 71 3.1 SE 33 43 18 23 1014.1 1013.9 0.0
28/04:00am 19.5 13.6 13.7 69 3.3 SE 37 44 20 24 1013.9 1013.7 0.0
28/03:30am 19.6 14.1 13.5 68 3.5 SE 35 44 19 24 1013.7 1013.5 0.0
28/03:00am 19.9 13.9 13.4 66 3.7 SE 37 48 20 26 1013.4 1013.2 0.0
28/02:30am 20.2 15.1 13.6 66 3.8 SE 33 46 18 25 1013.5 1013.3 0.0
28/02:00am 20.4 15.0 13.8 66 3.8 SE 35 46 19 25 1013.4 1013.2 0.0
28/01:30am 20.8 15.0 14.0 65 3.9 SE 37 44 20 24 1013.3 1013.1 0.0
28/01:00am 21.0 15.1 14.6 67 3.8 SSE 39 50 21 27 1013.1 1012.9 0.0
28/12:30am 21.2 15.1 15.1 68 3.6 SSE 41 54 22 29 1013.0 1012.8 0.0
28/12:00am 21.3 14.8 15.6 70 3.4 SSE 44 54 24 29 1012.8 1012.6 0.0
 
Date/Time
WST
Temp
°C
App
Temp
°C
Dew
Point
Rel
Hum
%
Delta-T
°C
Wind Press
QNH
hPa
Press
MSL
hPa
Rain
since 9 am
mm
Dir
 
Spd
km/h
Gust
km/h
Spd
kts
Gust
kts
27/11:30pm 21.3 14.6 15.2 68 3.6 SSE 44 56 24 30 1012.3 1012.1 0.0
27/11:00pm 21.6 13.8 16.3 72 3.2 S 52 61 28 33 1012.1 1011.9 0.0
27/10:30pm 21.7 14.2 16.9 74 2.9 S 52 61 28 33 1012.1 1011.9 0.0
27/10:00pm 21.2 14.9 17.0 77 2.6 S 46 56 25 30 1012.3 1012.1 0.0
27/09:30pm 21.2 15.6 17.4 79 2.3 S 43 54 23 29 1012.4 1012.2 0.0
27/09:00pm 21.1 14.1 16.3 74 2.9 S 48 59 26 32 1012.1 1011.9 0.0
27/08:30pm 20.8 14.1 16.0 74 2.9 SSW 46 61 25 33 1011.5 1011.3 0.0
27/08:00pm 20.8 14.8 16.8 78 2.4 SSW 44 56 24 30 1011.2 1011.0 0.0
27/07:30pm 21.0 14.7 16.2 74 2.9 SSW 44 52 24 28 1011.0 1010.8 0.0
27/07:00pm 21.0 15.6 16.0 73 3.0 SSW 39 52 21 28 1011.1 1010.9 0.0
27/06:30pm 21.2 15.2 15.5 70 3.4 SSW 41 52 22 28 1011.0 1010.8 0.0
27/06:00pm 21.6 16.3 16.3 72 3.2 SSW 39 50 21 27 1010.8 1010.6 0.0
27/05:30pm 22.3 17.0 16.3 69 3.6 SSW 39 48 21 26 1010.8 1010.6 0.0
27/05:00pm 22.6 17.7 16.4 68 3.8 SSW 37 50 20 27 1010.8 1010.6 0.0
27/04:30pm 22.6 16.6 15.4 64 4.3 SSW 41 50 22 27 1010.6 1010.4 0.0
27/04:00pm 22.7 16.3 15.3 63 4.4 SSW 43 50 23 27 1010.5 1010.3 0.0
27/03:30pm 24.1 17.7 15.3 58 5.3 SSW 43 52 23 28 1010.2 1010.0 0.0
27/03:00pm 22.7 16.0 14.5 60 4.8 SW 43 52 23 28 1010.3 1010.1 0.0
27/02:30pm 22.8 16.3 15.6 64 4.3 SSW 44 54 24 29 1010.2 1010.0 0.0
27/02:00pm 23.6 17.2 15.4 60 4.9 SSW 43 50 23 27 1010.4 1010.2 0.0
27/01:30pm 23.9 17.4 15.1 58 5.3 SSW 43 52 23 28 1010.3 1010.1 0.0
27/01:00pm 23.3 17.1 14.8 59 5.1 SSW 41 50 22 27 1010.6 1010.4 0.0
27/12:30pm 23.1 16.7 15.4 62 4.6 SSW 43 52 23 28 1010.4 1010.2 0.0
27/12:00pm 22.6 16.4 15.0 62 4.5 SSW 41 46 22 25 1010.4 1010.2 0.0
27/11:30am 22.7 16.5 14.8 61 4.7 SSW 41 48 22 26 1010.5 1010.3 0.0
27/11:00am 23.8 17.9 15.6 60 5.0 S 41 50 22 27 1010.4 1010.2 0.0
27/10:30am 23.4 17.5 14.7 58 5.2 S 39 50 21 27 1010.3 1010.1 0.0
27/10:00am 23.1 16.4 14.7 59 5.0 S 43 52 23 28 1010.3 1010.1 0.0
27/09:30am 22.3 15.7 14.9 63 4.4 SSW 43 50 23 27 1010.2 1010.0 0.0
27/09:00am 21.5 15.1 15.3 68 3.7 SSW 43 54 23 29 1009.7 1009.5 0.0
27/08:30am 21.0 15.5 15.8 72 3.1 SSW 39 50 21 27 1009.3 1009.1 0.0
27/08:00am 21.0 14.9 16.2 74 2.9 SSW 43 54 23 29 1008.8 1008.6 0.0
27/07:30am 20.9 14.7 16.5 76 2.7 SSW 44 54 24 29 1008.5 1008.3 0.0
27/07:00am 20.8 15.4 17.0 79 2.3 SSW 41 54 22 29 1008.3 1008.1 0.0
27/06:30am 20.5 15.1 16.9 80 2.2 SSW 41 50 22 27 1008.0 1007.8 0.0
27/06:00am 20.6 16.5 17.4 82 2.0 SSW 35 46 19 25 1007.6 1007.5 0.0
27/05:30am 20.6 16.6 17.6 83 1.8 SSW 35 44 19 24 1007.1 1006.9 0.0
27/05:00am 20.7 16.5 18.1 85 1.6 SSW 37 44 20 24 1006.7 1006.5 0.0
27/04:30am 20.6 16.4 18.0 85 1.6 SSW 37 46 20 25 1006.4 1006.2 0.0
27/04:00am 20.8 16.3 18.2 85 1.6 SSW 39 50 21 27 1006.3 1006.1 0.0
27/03:30am 20.7 15.9 18.5 87 1.4 SSW 41 48 22 26 1005.8 1005.6 0.0
27/03:00am 20.8 17.3 18.7 88 1.3 SW 35 46 19 25 1005.8 1005.6 0.0
27/02:30am 20.9 17.4 18.7 87 1.4 SW 35 43 19 23 1005.9 1005.7 0.0
27/02:00am 21.0 18.0 19.1 89 1.2 SW 33 41 18 22 1005.8 1005.6 0.0
27/01:30am 21.2 19.4 19.5 90 1.1 SW 28 35 15 19 1006.0 1005.8 0.0
27/01:00am 21.2 19.8 19.7 91 1.0 SW 26 35 14 19 1006.2 1006.0 0.0
27/12:30am 21.4 20.7 20.2 93 0.8 SW 24 32 13 17 1006.2 1006.0 0.0
27/12:00am 21.6 21.8 20.2 92 0.9 SW 19 24 10 13 1006.4 1006.2 0.0
 
Date/Time
WST
Temp
°C
App
Temp
°C
Dew
Point
Rel
Hum
%
Delta-T
°C
Wind Press
QNH
hPa
Press
MSL
hPa
Rain
since 9 am
mm
Dir
 
Spd
km/h
Gust
km/h
Spd
kts
Gust
kts
26/11:30pm 21.8 22.4 20.3 91 1.0 SW 17 20 9 11 1006.3 1006.1 0.0
26/11:00pm 21.7 22.2 20.0 90 1.1 SSW 17 20 9 11 1006.2 1006.0 0.0
26/10:30pm 21.6 21.5 19.5 88 1.3 SSW 19 24 10 13 1006.3 1006.1 0.0
26/10:00pm 21.5 21.0 19.2 87 1.5 SW 20 26 11 14 1006.4 1006.2 0.0
26/09:30pm 21.6 21.1 19.0 85 1.6 SW 20 26 11 14 1006.6 1006.4 0.0
26/09:00pm 21.7 20.4 19.1 85 1.7 SW 24 30 13 16 1006.5 1006.3 0.0
26/08:30pm 21.9 21.1 19.3 85 1.7 SW 22 30 12 16 1006.5 1006.3 0.0
26/08:00pm 21.8 21.6 19.7 88 1.3 SSW 20 26 11 14 1006.0 1005.8 0.0
26/07:30pm 22.0 21.9 19.9 88 1.3 SSW 20 24 11 13 1005.6 1005.4 0.0
26/07:00pm 22.3 22.1 19.8 86 1.6 SSW 20 26 11 14 1005.3 1005.1 0.0
26/06:30pm 22.6 22.0 19.8 84 1.8 SSW 22 30 12 16 1005.1 1004.9 0.0
26/06:00pm 23.2 22.5 20.2 83 1.9 SSW 24 32 13 17 1005.0 1004.8 0.0
26/05:30pm 24.4 24.4 20.9 81 2.3 SSW 22 30 12 16 1004.9 1004.7 0.0
26/05:00pm 24.5 24.5 21.0 81 2.3 SSW 22 26 12 14 1004.8 1004.6 0.0
26/04:30pm 25.0 25.1 21.1 79 2.6 SSW 22 28 12 15 1004.9 1004.7 0.0
26/04:00pm 25.5 25.9 21.0 76 3.0 WSW 20 28 11 15 1004.9 1004.7 0.0
26/03:30pm 24.7 24.3 21.0 80 2.4 WNW 24 28 13 15 1005.0 1004.8 0.0
26/03:00pm 25.7 25.0 21.1 76 3.0 WNW 26 32 14 17 1005.0 1004.8 0.0
26/02:30pm 26.5 26.8 21.5 74 3.3 NW 22 28 12 15 1005.1 1004.9 0.0
26/02:00pm 25.7 25.6 20.7 74 3.3 NW 22 28 12 15 1005.4 1005.2 0.0
26/01:30pm 26.0 25.6 20.1 70 3.8 NW 22 28 12 15 1005.7 1005.5 0.0
26/01:00pm 26.5 26.5 21.0 72 3.6 NW 22 26 12 14 1005.7 1005.5 0.0
26/12:30pm 25.8 25.5 20.4 72 3.5 NW 22 28 12 15 1006.0 1005.8 0.0
26/12:00pm 26.1 25.8 20.4 71 3.7 NW 22 26 12 14 1006.3 1006.1 0.0
26/11:30am 26.1 26.1 19.7 68 4.1 NW 19 20 10 11 1006.5 1006.3 0.0
26/11:00am 26.6 27.2 20.2 68 4.2 NW 17 20 9 11 1006.6 1006.4 0.0
26/10:30am 25.7 26.2 20.0 71 3.7 NW 17 20 9 11 1007.0 1006.8 0.0
26/10:00am 25.8 27.0 20.6 73 3.4 NNW 15 17 8 9 1007.0 1006.8 0.0
26/09:30am 25.7 27.7 20.7 74 3.3 NNW 11 15 6 8 1007.0 1006.8 0.0
26/09:00am 25.1 27.4 21.4 80 2.5 NNW 11 15 6 8 1007.0 1006.8 0.0
26/08:30am 24.7 26.7 21.6 83 2.1 N 13 15 7 8 1007.0 1006.8 0.0
26/08:00am 24.4 26.9 22.5 89 1.3 NNE 13 15 7 8 1006.8 1006.6 0.0
26/07:30am 23.2 25.5 22.0 93 0.8 NE 13 15 7 8 1006.6 1006.4 0.0

Other Formats:

Comma delimited format used in spreadsheet applications
http://www.bom.gov.au/fwo/IDW60801/IDW60801.94602.axf

JavaScript Object Notation format (JSON) in row-major order
http://www.bom.gov.au/fwo/IDW60801/IDW60801.94602.json